createdAt,value
2019-06-27T00:02:19.701Z,24.86
2019-06-27T00:04:51.561Z,24.75
2019-06-27T00:07:23.519Z,24.75
2019-06-27T00:09:55.425Z,24.69
2019-06-27T00:12:26.637Z,24.56
2019-06-27T00:14:58.437Z,24.40
2019-06-27T00:17:30.407Z,24.32
2019-06-27T00:20:01.603Z,24.25
2019-06-27T00:22:32.824Z,24.10
2019-06-27T00:25:04.905Z,24.04
2019-06-27T00:27:36.793Z,24.00
2019-06-27T00:30:09.433Z,23.92
2019-06-27T00:32:40.747Z,23.95
2019-06-27T00:35:12.822Z,23.95
2019-06-27T00:37:44.697Z,23.83
2019-06-27T00:40:17.637Z,23.83
2019-06-27T00:42:48.865Z,23.69
2019-06-27T00:45:21.083Z,23.48
2019-06-27T00:47:54.005Z,23.51
2019-06-27T00:50:25.267Z,23.48
2019-06-27T00:52:57.089Z,23.47
2019-06-27T00:55:28.965Z,23.38
2019-06-27T00:58:01.008Z,23.31
2019-06-27T01:00:32.997Z,23.21
2019-06-27T01:03:08.021Z,23.23
2019-06-27T01:05:39.975Z,23.11
2019-06-27T01:08:11.193Z,22.91
2019-06-27T01:10:42.975Z,22.94
2019-06-27T01:13:14.901Z,22.92
2019-06-27T01:15:46.130Z,22.75
2019-06-27T01:18:18.021Z,22.85
2019-06-27T01:20:49.838Z,22.74
2019-06-27T01:23:21.723Z,22.59
2019-06-27T01:25:53.555Z,22.45
2019-06-27T01:28:25.609Z,22.43
2019-06-27T01:30:57.476Z,22.43
2019-06-27T01:33:29.472Z,22.33
2019-06-27T01:36:00.670Z,22.38
2019-06-27T01:38:32.625Z,22.26
2019-06-27T01:41:04.580Z,22.15
2019-06-27T01:43:36.557Z,22.00
2019-06-27T01:46:08.500Z,21.89
2019-06-27T01:48:40.373Z,21.80
2019-06-27T01:51:12.361Z,21.75
2019-06-27T01:53:44.561Z,21.64
2019-06-27T01:56:16.840Z,21.69
2019-06-27T01:58:56.540Z,21.66
2019-06-27T02:01:28.393Z,21.57
2019-06-27T02:04:00.525Z,21.55
2019-06-27T02:06:34.032Z,21.43
2019-06-27T02:09:07.752Z,21.43
2019-06-27T02:11:39.196Z,21.49
2019-06-27T02:14:11.001Z,21.37
2019-06-27T02:16:49.747Z,21.28
2019-06-27T02:19:21.012Z,21.11
2019-06-27T02:21:52.985Z,21.16
2019-06-27T02:24:24.972Z,21.02
2019-06-27T02:26:57.167Z,21.02
2019-06-27T02:29:29.281Z,20.86
2019-06-27T02:32:01.330Z,20.78
2019-06-27T02:34:36.027Z,20.84
2019-06-27T02:37:09.531Z,20.64
2019-06-27T02:39:41.602Z,20.61
2019-06-27T02:42:13.545Z,20.59
2019-06-27T02:44:46.856Z,20.42
2019-06-27T02:47:18.349Z,20.37
2019-06-27T02:49:54.184Z,20.31
2019-06-27T02:52:29.615Z,20.25
2019-06-27T02:55:07.673Z,20.15
2019-06-27T02:57:43.257Z,19.98
2019-06-27T03:00:16.622Z,20.04
2019-06-27T03:02:55.789Z,19.96
2019-06-27T03:05:32.733Z,19.81
2019-06-27T03:08:09.219Z,19.82
2019-06-27T03:10:41.117Z,19.73
2019-06-27T03:13:14.321Z,19.67
2019-06-27T03:15:49.597Z,19.57
2019-06-27T03:18:20.869Z,19.51
2019-06-27T03:20:52.807Z,19.51
2019-06-27T03:23:24.840Z,19.42
2019-06-27T03:25:56.697Z,19.38
2019-06-27T03:28:49.761Z,19.32
2019-06-27T03:31:02.485Z,19.27
2019-06-27T03:33:36.385Z,19.17
2019-06-27T03:36:09.446Z,19.12
2019-06-27T03:38:44.220Z,18.99
2019-06-27T03:41:15.601Z,19.03
2019-06-27T03:43:47.650Z,18.92
2019-06-27T03:46:19.652Z,18.96
2019-06-27T03:48:51.591Z,19.07
2019-06-27T03:51:23.435Z,19.06
2019-06-27T03:53:55.399Z,19.13
2019-06-27T03:56:26.648Z,19.22
2019-06-27T03:59:11.288Z,19.21
2019-06-27T04:01:31.451Z,19.26
2019-06-27T04:04:03.674Z,19.11
2019-06-27T04:06:35.714Z,19.18
2019-06-27T04:09:07.323Z,19.27
2019-06-27T04:11:39.464Z,19.12
2019-06-27T04:14:11.487Z,19.06
2019-06-27T04:16:48.610Z,18.99
2019-06-27T04:19:17.230Z,19.16
2019-06-27T04:21:49.297Z,19.22
2019-06-27T04:24:22.325Z,19.21
2019-06-27T04:26:54.248Z,19.17
2019-06-27T04:29:33.643Z,19.08
2019-06-27T04:32:00.040Z,19.00
2019-06-27T04:34:32.072Z,19.02
2019-06-27T04:37:04.125Z,18.87
2019-06-27T04:39:35.439Z,18.92
2019-06-27T04:42:39.163Z,18.75
2019-06-27T04:45:11.251Z,18.89
2019-06-27T04:47:42.795Z,18.89
2019-06-27T04:50:15.026Z,18.64
2019-06-27T04:52:46.555Z,18.59
2019-06-27T04:55:18.720Z,18.69
2019-06-27T04:57:50.761Z,18.68
2019-06-27T05:00:30.120Z,18.35
2019-06-27T05:03:01.437Z,18.18
2019-06-27T05:05:35.104Z,18.00
2019-06-27T05:08:07.212Z,18.03
2019-06-27T05:10:39.287Z,18.18
2019-06-27T05:13:11.387Z,18.14
2019-06-27T05:19:38.007Z,18.37
2019-06-27T05:22:09.271Z,18.57
2019-06-27T05:24:41.338Z,18.63
2019-06-27T05:27:13.472Z,18.71
2019-06-27T05:29:45.459Z,18.85
2019-06-27T05:32:16.759Z,18.81
2019-06-27T05:34:48.646Z,18.87
2019-06-27T05:37:19.838Z,18.86
2019-06-27T05:39:55.014Z,19.05
2019-06-27T05:42:28.194Z,19.15
2019-06-27T05:45:00.222Z,19.29
2019-06-27T05:47:32.246Z,19.34
2019-06-27T05:50:04.200Z,19.59
2019-06-27T05:52:36.159Z,19.86
2019-06-27T05:55:08.554Z,19.68
2019-06-27T05:57:40.539Z,19.48
2019-06-27T06:00:27.681Z,19.46
2019-06-27T06:02:46.328Z,19.34
2019-06-27T06:05:18.414Z,19.06
2019-06-27T06:07:50.405Z,19.19
2019-06-27T06:10:22.937Z,19.00
2019-06-27T06:12:59.418Z,18.81
2019-06-27T06:15:30.881Z,18.71
2019-06-27T06:18:03.430Z,18.84
2019-06-27T06:20:35.003Z,18.66
2019-06-27T06:23:08.770Z,18.56
2019-06-27T06:25:41.618Z,18.43
2019-06-27T06:28:12.954Z,18.50
2019-06-27T06:30:48.530Z,18.75
2019-06-27T06:33:23.943Z,18.76
2019-06-27T06:35:55.195Z,18.73
2019-06-27T06:38:36.475Z,18.81
2019-06-27T06:41:14.027Z,18.81
2019-06-27T06:43:45.697Z,18.95
2019-06-27T06:46:17.602Z,19.14
2019-06-27T06:48:48.845Z,19.25
2019-06-27T06:51:21.505Z,19.40
2019-06-27T06:53:53.742Z,19.42
2019-06-27T06:56:25.613Z,19.17
2019-06-27T06:58:57.469Z,19.18
2019-06-27T07:01:29.439Z,19.16
2019-06-27T07:04:01.404Z,19.27
2019-06-27T07:06:33.326Z,19.32
2019-06-27T07:09:06.149Z,19.32
2019-06-27T07:11:38.097Z,19.61
2019-06-27T07:14:09.998Z,19.53
2019-06-27T07:16:41.920Z,19.32
2019-06-27T07:19:14.701Z,19.38
2019-06-27T07:21:46.652Z,19.38
2019-06-27T07:24:17.954Z,19.44
2019-06-27T07:26:49.761Z,19.61
2019-06-27T07:29:21.777Z,19.64
2019-06-27T07:31:53.802Z,19.74
2019-06-27T07:34:25.832Z,19.70
2019-06-27T07:36:57.162Z,19.64
2019-06-27T07:39:28.339Z,19.76
2019-06-27T07:42:00.288Z,19.69
2019-06-27T07:44:32.416Z,19.50
2019-06-27T07:47:04.287Z,19.71
2019-06-27T07:49:36.153Z,19.91
2019-06-27T07:52:08.053Z,19.99
2019-06-27T07:54:39.243Z,20.16
2019-06-27T07:57:11.046Z,20.15
2019-06-27T07:59:42.895Z,20.19
2019-06-27T08:02:16.367Z,19.98
2019-06-27T08:04:48.311Z,19.99
2019-06-27T08:07:21.313Z,20.11
2019-06-27T08:09:53.401Z,20.17
2019-06-27T08:12:24.748Z,20.12
2019-06-27T08:14:56.652Z,20.29
2019-06-27T08:17:27.865Z,20.22
2019-06-27T08:19:59.667Z,20.27
2019-06-27T08:22:31.545Z,20.36
2019-06-27T08:25:02.976Z,20.38
2019-06-27T08:27:34.776Z,20.61
2019-06-27T08:30:08.686Z,20.45
2019-06-27T08:32:40.897Z,20.66
2019-06-27T08:35:12.005Z,20.58
2019-06-27T08:37:43.248Z,20.80
2019-06-27T08:40:15.665Z,20.87
2019-06-27T08:42:47.596Z,21.01
2019-06-27T08:45:19.754Z,21.02
2019-06-27T08:47:51.734Z,20.90
2019-06-27T08:50:23.580Z,21.05
2019-06-27T08:52:55.480Z,21.10
2019-06-27T08:55:28.520Z,20.95
2019-06-27T08:58:00.449Z,21.15
2019-06-27T09:00:32.400Z,21.16
2019-06-27T09:03:04.340Z,21.29
2019-06-27T09:05:35.628Z,21.37
2019-06-27T09:08:07.544Z,21.48
2019-06-27T09:10:38.777Z,21.42
2019-06-27T09:13:09.960Z,21.48
2019-06-27T09:15:41.117Z,21.65
2019-06-27T09:18:12.896Z,21.97
2019-06-27T09:20:49.190Z,21.87
2019-06-27T09:23:22.852Z,21.98
2019-06-27T09:25:54.192Z,21.92
2019-06-27T09:28:25.568Z,22.00
2019-06-27T09:31:00.774Z,21.96
2019-06-27T09:33:33.313Z,22.09
2019-06-27T09:36:11.924Z,22.13
2019-06-27T09:38:44.756Z,22.07
2019-06-27T09:41:16.010Z,22.06
2019-06-27T09:43:47.168Z,22.02
2019-06-27T09:46:20.388Z,22.02
2019-06-27T09:48:53.236Z,22.23
2019-06-27T09:51:26.665Z,22.25
2019-06-27T09:54:00.540Z,22.31
2019-06-27T09:56:31.829Z,22.48
2019-06-27T09:59:05.981Z,22.48
2019-06-27T10:01:37.488Z,22.50
2019-06-27T10:04:08.677Z,22.48
2019-06-27T10:06:41.948Z,22.64
2019-06-27T10:09:13.250Z,22.52
2019-06-27T10:11:44.601Z,22.41
2019-06-27T10:14:15.916Z,22.44
2019-06-27T10:16:47.873Z,22.63
2019-06-27T10:19:20.178Z,22.77
2019-06-27T10:21:55.840Z,22.89
2019-06-27T10:24:30.183Z,23.07
2019-06-27T10:27:04.055Z,22.97
2019-06-27T10:29:35.425Z,23.06
2019-06-27T10:32:06.793Z,23.22
2019-06-27T10:34:39.066Z,23.02
2019-06-27T10:37:10.497Z,23.22
2019-06-27T10:39:41.822Z,23.41
2019-06-27T10:42:13.117Z,23.33
2019-06-27T10:44:45.356Z,23.39
2019-06-27T10:47:33.574Z,23.40
2019-06-27T10:50:08.142Z,23.45
2019-06-27T10:52:40.800Z,23.42
2019-06-27T10:55:12.060Z,23.51
2019-06-27T10:57:43.352Z,23.31
2019-06-27T11:00:17.025Z,23.37
2019-06-27T11:02:48.372Z,23.42
2019-06-27T11:05:19.487Z,23.55
2019-06-27T11:07:51.331Z,23.57
2019-06-27T11:10:22.651Z,23.59
2019-06-27T11:12:54.039Z,23.74
2019-06-27T11:15:26.748Z,23.80
2019-06-27T11:18:00.432Z,23.83
2019-06-27T11:20:32.473Z,23.90
2019-06-27T11:23:03.828Z,24.06
2019-06-27T11:25:40.371Z,24.02
2019-06-27T11:28:11.872Z,23.89
2019-06-27T11:30:43.857Z,24.04
2019-06-27T11:33:31.252Z,24.22
2019-06-27T11:35:51.192Z,24.22
2019-06-27T11:38:22.483Z,24.28
2019-06-27T11:40:53.652Z,24.43
2019-06-27T11:43:24.806Z,24.44
2019-06-27T11:45:56.012Z,24.38
2019-06-27T11:48:27.178Z,24.55
2019-06-27T11:50:58.440Z,24.32
2019-06-27T11:53:30.251Z,24.38
2019-06-27T11:56:02.252Z,24.33
2019-06-27T11:58:34.364Z,24.42
2019-06-27T12:01:06.366Z,24.49
2019-06-27T12:03:48.854Z,24.44
2019-06-27T12:06:11.975Z,24.53
2019-06-27T12:08:43.227Z,24.50
2019-06-27T12:11:14.479Z,24.35
2019-06-27T12:13:46.307Z,24.58
2019-06-27T12:16:18.359Z,24.87
2019-06-27T12:18:49.607Z,24.90
2019-06-27T12:21:20.743Z,24.99
2019-06-27T12:23:53.687Z,25.01
2019-06-27T12:26:24.883Z,24.92
2019-06-27T12:28:56.744Z,24.96
2019-06-27T12:31:27.952Z,24.92
2019-06-27T12:34:06.728Z,25.22
2019-06-27T12:36:32.767Z,25.28
2019-06-27T12:39:04.335Z,25.45
2019-06-27T12:41:35.943Z,25.13
2019-06-27T12:44:07.736Z,25.37
2019-06-27T12:46:38.935Z,25.37
2019-06-27T12:49:10.183Z,25.27
2019-06-27T12:51:42.178Z,25.02
2019-06-27T12:54:14.156Z,25.26
2019-06-27T12:56:46.019Z,25.12
2019-06-27T12:59:17.939Z,25.08
2019-06-27T13:01:50.002Z,25.22
2019-06-27T13:04:24.147Z,25.26
2019-06-27T13:06:55.839Z,25.37
2019-06-27T13:09:27.738Z,25.35
2019-06-27T13:11:59.717Z,25.58
2019-06-27T13:14:31.690Z,25.52
2019-06-27T13:17:03.535Z,25.76
2019-06-27T13:19:34.803Z,25.68
2019-06-27T13:22:06.702Z,25.58
2019-06-27T13:24:38.633Z,25.28
2019-06-27T13:27:10.567Z,25.19
2019-06-27T13:29:42.590Z,25.16
2019-06-27T13:32:14.602Z,25.28
2019-06-27T13:34:46.496Z,25.08
2019-06-27T13:37:21.075Z,25.14
2019-06-27T13:40:34.288Z,25.09
2019-06-27T13:47:26.430Z,25.50
2019-06-27T13:50:00.500Z,25.49
2019-06-27T13:52:33.074Z,25.58
2019-06-27T13:55:04.676Z,25.67
2019-06-27T13:57:37.618Z,25.58
2019-06-27T14:00:19.999Z,25.40
2019-06-27T14:02:52.002Z,25.64
2019-06-27T14:05:23.840Z,25.72
2019-06-27T14:07:55.704Z,25.64
2019-06-27T14:10:27.551Z,25.80
2019-06-27T14:12:59.528Z,25.78
2019-06-27T14:15:31.475Z,25.94
2019-06-27T14:18:03.592Z,25.62
2019-06-27T14:20:35.627Z,25.67
2019-06-27T14:23:07.601Z,25.59
2019-06-27T14:25:38.954Z,25.54
2019-06-27T14:28:10.185Z,25.80
2019-06-27T14:30:42.102Z,25.50
2019-06-27T14:34:34.102Z,25.64
2019-06-27T15:06:46.275Z,25.85
2019-06-27T15:09:35.226Z,25.99
2019-06-27T15:12:06.418Z,25.88
2019-06-27T15:14:43.651Z,25.71
2019-06-27T15:17:14.799Z,25.79
2019-06-27T15:19:59.414Z,25.89
2019-06-27T15:22:29.499Z,25.92
2019-06-27T15:25:00.683Z,25.92
2019-06-27T15:27:32.482Z,25.87
2019-06-27T15:30:03.822Z,25.89
2019-06-27T15:32:35.826Z,25.99
2019-06-27T15:35:08.178Z,26.13
2019-06-27T15:37:39.529Z,25.93
2019-06-27T15:40:14.347Z,26.06
2019-06-27T15:42:46.362Z,26.09
2019-06-27T15:45:18.047Z,26.14
2019-06-27T15:47:49.193Z,26.08
2019-06-27T15:50:21.195Z,26.07
2019-06-27T15:52:53.144Z,26.13
2019-06-27T15:55:25.126Z,26.09
2019-06-27T15:57:56.436Z,26.30
2019-06-27T16:00:28.472Z,26.10
2019-06-27T16:03:00.506Z,25.90
2019-06-27T16:05:32.172Z,26.27
2019-06-27T16:08:04.135Z,26.18
2019-06-27T16:10:35.398Z,26.25
2019-06-27T16:13:06.735Z,26.26
2019-06-27T16:15:38.665Z,26.42
2019-06-27T16:18:11.065Z,26.58
2019-06-27T16:20:43.051Z,26.51
2019-06-27T16:23:14.946Z,26.71
2019-06-27T16:25:50.107Z,26.79
2019-06-27T16:28:21.317Z,26.72
2019-06-27T16:30:53.125Z,26.72
2019-06-27T16:33:25.013Z,26.62
2019-06-27T16:35:56.933Z,26.80
2019-06-27T16:38:28.182Z,26.84
2019-06-27T16:41:00.223Z,26.72
2019-06-27T16:43:31.621Z,26.88
2019-06-27T16:46:03.633Z,26.84
2019-06-27T16:48:35.724Z,26.79
2019-06-27T16:51:07.905Z,26.88
2019-06-27T16:53:39.217Z,27.22
2019-06-27T16:56:11.196Z,27.13
2019-06-27T16:58:43.145Z,27.17
2019-06-27T17:01:14.689Z,27.08
2019-06-27T17:03:46.573Z,27.09
2019-06-27T17:06:17.930Z,27.25
2019-06-27T17:08:51.349Z,27.24
2019-06-27T17:11:23.333Z,27.44
2019-06-27T17:13:55.250Z,27.38
2019-06-27T17:16:27.288Z,27.60
2019-06-27T17:18:59.206Z,27.39
2019-06-27T17:21:34.737Z,27.29
2019-06-27T17:24:06.765Z,27.26
2019-06-27T17:26:38.068Z,27.13
2019-06-27T17:29:12.908Z,27.64
2019-06-27T17:31:44.873Z,27.65
2019-06-27T17:34:18.500Z,27.14
2019-06-27T17:36:57.388Z,27.45
2019-06-27T17:39:24.468Z,27.61
2019-06-27T17:41:56.600Z,27.82
2019-06-27T17:44:30.169Z,27.72
2019-06-27T17:47:02.215Z,27.41
2019-06-27T17:49:34.237Z,27.35
2019-06-27T17:52:06.176Z,27.54
2019-06-27T17:54:38.164Z,27.69
2019-06-27T17:57:10.048Z,27.81
2019-06-27T17:59:42.167Z,27.87
2019-06-27T18:02:14.109Z,27.95
2019-06-27T18:04:45.400Z,27.56
2019-06-27T18:07:17.247Z,27.43
2019-06-27T18:09:49.170Z,27.54
2019-06-27T18:12:21.166Z,26.40
2019-06-27T18:14:54.314Z,27.11
2019-06-27T18:17:33.631Z,26.75
2019-06-27T18:19:59.343Z,26.32
2019-06-27T18:22:31.337Z,26.29
2019-06-27T18:25:03.373Z,26.06
2019-06-27T18:27:35.549Z,25.98
2019-06-27T18:30:09.032Z,25.74
2019-06-27T18:32:41.320Z,25.64
2019-06-27T18:35:16.092Z,25.47
2019-06-27T18:37:47.534Z,25.14
2019-06-27T18:40:19.893Z,25.08
2019-06-27T18:42:51.988Z,25.00
2019-06-27T18:45:23.296Z,24.80
2019-06-27T18:47:54.597Z,24.75
2019-06-27T18:50:27.881Z,24.55
2019-06-27T18:53:00.136Z,24.51
2019-06-27T18:55:32.363Z,24.31
2019-06-27T18:58:06.355Z,24.30
2019-06-27T19:00:38.227Z,24.18
2019-06-27T19:03:09.599Z,24.09
2019-06-27T19:05:42.603Z,24.00
2019-06-27T19:08:15.971Z,23.82
2019-06-27T19:10:48.082Z,23.78
2019-06-27T19:13:20.223Z,23.57
2019-06-27T19:15:52.407Z,23.53
2019-06-27T19:18:42.404Z,23.46
2019-06-27T19:21:20.267Z,23.36
2019-06-27T19:24:20.525Z,23.27
2019-06-27T19:26:55.719Z,23.16
2019-06-27T19:29:28.403Z,22.96
2019-06-27T19:34:38.648Z,22.80
2019-06-27T19:37:12.836Z,22.70
2019-06-27T19:39:52.772Z,22.66
2019-06-27T19:42:23.323Z,22.63
2019-06-27T19:44:57.782Z,22.56
2019-06-27T19:47:34.165Z,22.44
2019-06-27T19:50:06.235Z,22.41
2019-06-27T19:52:47.196Z,22.41
2019-06-27T19:55:29.996Z,22.40
2019-06-27T19:58:04.207Z,22.33
2019-06-27T20:00:40.064Z,22.25
2019-06-27T20:03:13.019Z,22.30
2019-06-27T20:05:44.296Z,22.21
2019-06-27T20:08:19.499Z,22.10
2019-06-27T20:10:50.176Z,22.07
2019-06-27T20:13:22.039Z,22.01
2019-06-27T20:15:53.232Z,21.99
2019-06-27T20:18:24.455Z,21.96
2019-06-27T20:20:55.655Z,21.89
2019-06-27T20:23:27.617Z,21.78
2019-06-27T20:25:59.539Z,21.75
2019-06-27T20:28:31.659Z,21.73
2019-06-27T20:31:02.965Z,21.64
2019-06-27T20:33:35.003Z,21.62
2019-06-27T20:36:06.995Z,21.54
2019-06-27T20:38:39.219Z,21.53
2019-06-27T20:41:10.523Z,21.48
2019-06-27T20:43:42.395Z,21.43
2019-06-27T20:46:14.352Z,21.41
2019-06-27T20:48:47.327Z,21.26
2019-06-27T20:51:19.559Z,21.24
2019-06-27T20:53:51.074Z,21.14
2019-06-27T20:56:23.279Z,21.04
2019-06-27T20:58:55.521Z,20.95
2019-06-27T21:01:31.631Z,20.97
2019-06-27T21:04:03.639Z,20.91
2019-06-27T21:06:35.003Z,20.81
2019-06-27T21:09:06.453Z,20.74
2019-06-27T21:11:37.657Z,20.56
2019-06-27T21:14:09.559Z,20.49
2019-06-27T21:16:41.506Z,20.48
2019-06-27T21:19:13.451Z,20.48
2019-06-27T21:21:45.416Z,20.36
2019-06-27T21:24:16.684Z,20.38
2019-06-27T21:26:48.136Z,20.27
2019-06-27T21:29:19.962Z,20.23
2019-06-27T21:31:51.286Z,20.19
2019-06-27T21:34:23.184Z,20.12
2019-06-27T21:36:54.582Z,20.09
2019-06-27T21:39:25.800Z,20.03
2019-06-27T21:41:57.694Z,19.96
2019-06-27T21:44:29.644Z,19.87
2019-06-27T21:47:00.955Z,19.79
2019-06-27T21:49:32.858Z,19.74
2019-06-27T21:52:04.835Z,19.48
2019-06-27T21:54:36.716Z,19.27
2019-06-27T21:57:09.731Z,19.29
2019-06-27T21:59:41.867Z,19.45
2019-06-27T22:02:13.894Z,19.43
2019-06-27T22:04:45.897Z,19.41
2019-06-27T22:07:17.892Z,19.31
2019-06-27T22:09:49.221Z,19.36
2019-06-27T22:12:21.082Z,19.34
2019-06-27T22:14:53.159Z,19.30
2019-06-27T22:17:25.164Z,19.11
2019-06-27T22:20:13.717Z,18.91
2019-06-27T22:22:31.123Z,18.98
2019-06-27T22:25:03.179Z,18.73
2019-06-27T22:27:34.670Z,18.83
2019-06-27T22:30:06.878Z,18.79
2019-06-27T22:32:38.896Z,18.75
2019-06-27T22:35:10.623Z,18.75
2019-06-27T22:37:59.650Z,18.64
2019-06-27T22:40:50.451Z,18.55
2019-06-27T22:43:39.670Z,18.31
2019-06-27T22:46:29.178Z,18.31
2019-06-27T22:49:01.206Z,18.19
2019-06-27T22:51:50.801Z,18.12
2019-06-27T22:54:23.958Z,18.02
2019-06-27T22:56:55.782Z,18.07
2019-06-27T22:59:27.116Z,18.00
2019-06-27T23:01:58.301Z,18.00
2019-06-27T23:04:30.310Z,17.92
2019-06-27T23:07:02.247Z,17.99
2019-06-27T23:09:34.183Z,17.98
2019-06-27T23:12:06.031Z,17.92
2019-06-27T23:14:37.882Z,17.93
2019-06-27T23:17:09.808Z,17.91
2019-06-27T23:19:41.792Z,17.91
2019-06-27T23:22:13.658Z,17.98
2019-06-27T23:24:44.895Z,17.99
2019-06-27T23:27:16.076Z,17.90
2019-06-27T23:29:47.836Z,17.97
2019-06-27T23:32:19.059Z,18.01
2019-06-27T23:34:50.235Z,18.03
2019-06-27T23:37:22.062Z,18.07
2019-06-27T23:39:53.405Z,18.10
2019-06-27T23:42:25.214Z,18.09
2019-06-27T23:44:57.122Z,18.14
2019-06-27T23:47:28.425Z,18.18
2019-06-27T23:50:00.238Z,18.16
2019-06-27T23:52:31.513Z,18.24
2019-06-27T23:55:02.728Z,18.15
2019-06-27T23:57:34.874Z,18.27
